createdAt,value
2023-05-16T00:04:27.615Z,25
2023-05-16T00:33:14.758Z,29
2023-05-16T01:02:10.884Z,29
2023-05-16T01:30:57.774Z,29
2023-05-16T01:59:52.194Z,32
2023-05-16T02:28:48.775Z,32
2023-05-16T02:57:42.747Z,32
2023-05-16T03:26:20.067Z,35
2023-05-16T03:55:26.663Z,35
2023-05-16T04:23:59.549Z,41
2023-05-16T04:52:59.477Z,43
2023-05-16T05:22:02.261Z,43
2023-05-16T05:51:05.500Z,41
2023-05-16T06:19:54.298Z,36
2023-05-16T06:48:44.656Z,35
2023-05-16T07:17:33.981Z,31
2023-05-16T07:46:28.392Z,33
2023-05-16T08:15:21.861Z,35
2023-05-16T08:44:09.352Z,36
2023-05-16T09:13:05.422Z,26
2023-05-16T09:42:01.181Z,24
2023-05-16T10:10:48.748Z,26
2023-05-16T10:39:44.370Z,13
2023-05-16T11:08:38.883Z,7
2023-05-16T11:37:33.721Z,7
2023-05-16T12:06:27.310Z,7
2023-05-16T12:35:17.340Z,5
2023-05-16T13:04:18.141Z,5
2023-05-16T13:32:57.186Z,4
2023-05-16T14:01:36.910Z,4
2023-05-16T14:30:26.687Z,7
2023-05-16T14:59:00.152Z,7
2023-05-16T15:27:54.580Z,7
2023-05-16T15:56:44.430Z,7
2023-05-16T16:25:25.318Z,7
2023-05-16T16:54:16.848Z,5
2023-05-16T17:23:14.716Z,5
2023-05-16T17:52:03.626Z,7
2023-05-16T18:20:49.163Z,7
2023-05-16T18:49:36.677Z,7
2023-05-16T19:18:29.818Z,7
2023-05-16T19:47:11.959Z,10
2023-05-16T20:16:02.968Z,11
2023-05-16T20:44:51.098Z,10
2023-05-16T21:13:32.649Z,13
2023-05-16T21:42:22.131Z,7
2023-05-16T22:11:11.592Z,5
2023-05-16T22:39:57.231Z,7
2023-05-16T23:08:47.330Z,6
2023-05-16T23:37:31.692Z,5
